createdAt,value
2019-05-14T00:02:12.306Z,4.30
2019-05-14T00:06:22.014Z,4.30
2019-05-14T00:10:32.242Z,4.20
2019-05-14T00:14:43.708Z,4.20
2019-05-14T00:18:51.672Z,4.10
2019-05-14T00:23:01.398Z,4.00
2019-05-14T00:27:11.489Z,3.90
2019-05-14T00:31:21.330Z,3.90
2019-05-14T00:35:32.489Z,3.90
2019-05-14T00:39:41.584Z,3.80
2019-05-14T00:43:51.352Z,3.80
2019-05-14T00:48:01.471Z,3.70
2019-05-14T00:52:11.774Z,3.70
2019-05-14T00:56:21.622Z,3.70
2019-05-14T01:00:31.358Z,3.60
2019-05-14T01:04:42.585Z,3.60
2019-05-14T01:08:51.851Z,3.50
2019-05-14T01:13:01.377Z,3.50
2019-05-14T01:17:11.312Z,3.40
2019-05-14T01:21:21.964Z,3.40
2019-05-14T01:25:31.718Z,3.30
2019-05-14T01:29:42.564Z,3.20
2019-05-14T01:33:51.647Z,3.20
2019-05-14T01:38:02.768Z,3.10
2019-05-14T01:42:12.545Z,3.10
2019-05-14T01:46:21.598Z,3.10
2019-05-14T01:50:32.197Z,3.10
2019-05-14T01:54:42.675Z,3.00
2019-05-14T01:58:52.387Z,3.00
2019-05-14T02:03:01.910Z,2.90
2019-05-14T02:07:11.677Z,2.90
2019-05-14T02:11:21.410Z,2.80
2019-05-14T02:15:39.180Z,2.70
2019-05-14T02:19:42.562Z,2.70
2019-05-14T02:23:51.988Z,2.70
2019-05-14T02:28:01.491Z,2.60
2019-05-14T02:32:10.937Z,2.60
2019-05-14T02:36:20.663Z,2.60
2019-05-14T02:40:29.805Z,2.50
2019-05-14T02:44:40.891Z,2.50
2019-05-14T02:48:49.635Z,2.40
2019-05-14T02:52:59.852Z,2.30
2019-05-14T02:57:10.446Z,2.30
2019-05-14T03:01:20.171Z,2.30
2019-05-14T03:05:29.655Z,2.20
2019-05-14T03:09:40.291Z,2.10
2019-05-14T03:13:49.615Z,2.10
2019-05-14T03:17:59.996Z,2.10
2019-05-14T03:22:10.268Z,2.10
2019-05-14T03:26:19.980Z,2.10
2019-05-14T03:30:32.572Z,2.10
2019-05-14T03:34:42.997Z,2.00
2019-05-14T03:38:50.600Z,2.00
2019-05-14T03:43:00.027Z,2.00
2019-05-14T03:47:10.205Z,2.00
2019-05-14T03:51:20.533Z,2.00
2019-05-14T03:55:30.060Z,2.00
2019-05-14T03:59:40.149Z,2.00
2019-05-14T04:03:50.431Z,1.90
2019-05-14T04:08:00.273Z,2.00
2019-05-14T04:12:10.367Z,2.00
2019-05-14T04:16:23.068Z,2.00
2019-05-14T04:20:34.136Z,1.80
2019-05-14T04:24:43.457Z,1.80
2019-05-14T04:28:52.487Z,1.90
2019-05-14T04:33:03.303Z,2.00
2019-05-14T04:37:13.418Z,2.00
2019-05-14T04:41:22.283Z,2.30
2019-05-14T04:45:31.290Z,3.00
2019-05-14T04:49:40.350Z,4.00
2019-05-14T04:53:50.123Z,4.90
2019-05-14T04:57:59.361Z,5.80
2019-05-14T05:02:09.509Z,6.40
2019-05-14T05:06:19.293Z,7.10
2019-05-14T05:10:29.765Z,7.70
2019-05-14T05:14:39.244Z,8.00
2019-05-14T05:18:49.099Z,7.80
2019-05-14T05:22:59.178Z,7.40
2019-05-14T05:27:09.290Z,7.20
2019-05-14T05:31:18.693Z,7.30
2019-05-14T05:35:29.166Z,7.50
2019-05-14T05:39:38.641Z,7.60
2019-05-14T05:43:48.524Z,7.90
2019-05-14T05:48:01.434Z,7.90
2019-05-14T05:52:08.658Z,7.80
2019-05-14T05:56:18.700Z,7.70
2019-05-14T06:00:39.491Z,7.70
2019-05-14T06:04:48.086Z,7.60
2019-05-14T06:08:58.396Z,7.70
2019-05-14T06:13:08.863Z,7.80
2019-05-14T06:17:19.084Z,7.80
2019-05-14T06:21:29.290Z,8.00
2019-05-14T06:25:40.106Z,8.20
2019-05-14T06:29:49.100Z,8.30
2019-05-14T06:33:59.137Z,8.30
2019-05-14T06:38:08.892Z,8.40
2019-05-14T06:42:19.246Z,8.60
2019-05-14T06:46:28.545Z,8.90
2019-05-14T06:50:39.238Z,9.10
2019-05-14T06:54:49.745Z,9.20
2019-05-14T06:58:58.749Z,9.40
2019-05-14T07:03:08.897Z,9.50
2019-05-14T07:07:20.609Z,9.60
2019-05-14T07:11:29.205Z,9.80
2019-05-14T07:15:38.775Z,9.90
2019-05-14T07:19:49.130Z,10.00
2019-05-14T07:23:59.351Z,10.30
2019-05-14T07:28:08.907Z,10.70
2019-05-14T07:32:19.141Z,10.90
2019-05-14T07:36:29.263Z,11.10
2019-05-14T07:40:39.072Z,11.30
2019-05-14T07:44:48.706Z,11.40
2019-05-14T07:49:05.446Z,11.60
2019-05-14T07:53:09.046Z,11.90
2019-05-14T07:57:19.167Z,11.60
2019-05-14T08:01:28.327Z,11.60
2019-05-14T08:05:39.037Z,11.70
2019-05-14T08:09:48.137Z,11.90
2019-05-14T08:13:58.531Z,11.90
2019-05-14T08:18:08.144Z,12.10
2019-05-14T08:22:18.631Z,12.00
2019-05-14T08:26:29.319Z,12.10
2019-05-14T08:30:39.066Z,12.00
2019-05-14T08:34:48.170Z,12.10
2019-05-14T08:38:58.147Z,12.30
2019-05-14T08:43:08.635Z,12.50
2019-05-14T08:47:18.370Z,12.50
2019-05-14T08:51:29.631Z,12.80
2019-05-14T08:55:38.371Z,12.70
2019-05-14T08:59:48.598Z,12.40
2019-05-14T09:03:59.575Z,12.70
2019-05-14T09:08:08.959Z,12.90
2019-05-14T09:12:18.766Z,13.30
2019-05-14T09:16:41.864Z,13.40
2019-05-14T09:20:38.489Z,13.60
2019-05-14T09:24:49.085Z,13.70
2019-05-14T09:28:58.696Z,13.60
2019-05-14T09:33:08.714Z,13.40
2019-05-14T09:37:19.330Z,13.50
2019-05-14T09:41:30.817Z,13.90
2019-05-14T09:45:39.007Z,13.90
2019-05-14T09:49:49.052Z,13.90
2019-05-14T09:53:58.972Z,13.50
2019-05-14T09:58:08.299Z,13.60
2019-05-14T10:02:17.234Z,13.80
2019-05-14T10:06:28.480Z,14.20
2019-05-14T10:10:39.668Z,14.60
2019-05-14T10:14:48.660Z,14.50
2019-05-14T10:18:57.847Z,14.90
2019-05-14T10:23:09.068Z,14.80
2019-05-14T10:27:18.960Z,15.00
2019-05-14T10:31:28.920Z,15.50
2019-05-14T10:35:39.126Z,15.70
2019-05-14T10:39:48.165Z,15.20
2019-05-14T10:43:58.801Z,15.00
2019-05-14T10:48:09.638Z,15.10
2019-05-14T10:52:19.789Z,15.00
2019-05-14T10:56:29.823Z,15.20
2019-05-14T11:00:41.891Z,15.80
2019-05-14T11:04:49.775Z,15.70
2019-05-14T11:08:58.653Z,16.00
2019-05-14T11:13:08.981Z,16.00
2019-05-14T11:17:19.630Z,16.30
2019-05-14T11:21:30.205Z,15.80
2019-05-14T11:25:39.235Z,16.30
2019-05-14T11:29:49.123Z,16.60
2019-05-14T11:33:59.021Z,16.60
2019-05-14T11:38:27.935Z,16.50
2019-05-14T11:42:19.928Z,16.80
2019-05-14T11:46:41.895Z,16.40
2019-05-14T11:50:39.605Z,16.20
2019-05-14T11:54:49.397Z,16.30
2019-05-14T11:58:59.078Z,15.70
2019-05-14T12:03:09.182Z,15.10
2019-05-14T12:07:18.621Z,15.50
2019-05-14T12:11:29.065Z,16.50
2019-05-14T12:15:38.916Z,16.50
2019-05-14T12:19:48.469Z,16.30
2019-05-14T12:24:04.704Z,16.50
2019-05-14T12:28:13.473Z,16.70
2019-05-14T12:32:19.125Z,17.50
2019-05-14T12:36:29.258Z,17.90
2019-05-14T12:40:38.452Z,17.90
2019-05-14T12:44:47.286Z,17.50
2019-05-14T12:48:58.823Z,17.60
2019-05-14T12:53:08.360Z,18.10
2019-05-14T12:57:18.946Z,18.20
2019-05-14T13:01:27.831Z,17.90
2019-05-14T13:05:36.677Z,18.30
2019-05-14T13:09:45.703Z,18.70
2019-05-14T13:13:54.481Z,18.30
2019-05-14T13:18:03.243Z,17.90
2019-05-14T13:22:15.134Z,18.30
2019-05-14T13:26:22.515Z,18.50
2019-05-14T13:30:31.283Z,18.20
2019-05-14T13:34:40.050Z,18.20
2019-05-14T13:38:49.298Z,18.20
2019-05-14T13:42:58.046Z,18.30
2019-05-14T13:47:09.029Z,17.40
2019-05-14T13:51:19.557Z,17.30
2019-05-14T13:55:30.659Z,18.00
2019-05-14T13:59:43.728Z,18.30
2019-05-14T14:04:05.059Z,18.70
2019-05-14T14:07:59.893Z,18.60
2019-05-14T14:12:08.653Z,18.50
2019-05-14T14:16:19.623Z,19.20
2019-05-14T14:20:29.105Z,18.70
2019-05-14T14:24:38.727Z,18.60
2019-05-14T14:28:49.416Z,18.70
2019-05-14T14:32:58.803Z,17.80
2019-05-14T14:37:08.811Z,17.40
2019-05-14T14:41:19.391Z,17.90
2019-05-14T14:45:29.302Z,18.40
2019-05-14T14:49:43.331Z,18.30
2019-05-14T14:53:58.839Z,18.60
2019-05-14T14:57:59.794Z,19.00
2019-05-14T15:02:10.295Z,18.70
2019-05-14T15:06:19.512Z,18.90
2019-05-14T15:10:28.674Z,19.10
2019-05-14T15:14:39.481Z,19.40
2019-05-14T15:18:49.800Z,18.70
2019-05-14T15:23:00.053Z,18.60
2019-05-14T15:27:15.022Z,18.80
2019-05-14T15:31:19.589Z,18.60
2019-05-14T15:35:28.624Z,18.00
2019-05-14T15:39:39.154Z,18.20
2019-05-14T15:43:48.042Z,18.40
2019-05-14T15:48:02.973Z,17.90
2019-05-14T15:52:08.436Z,17.30
2019-05-14T15:56:18.746Z,17.70
2019-05-14T16:00:29.141Z,18.00
2019-05-14T16:04:38.855Z,18.30
2019-05-14T16:08:48.825Z,18.30
2019-05-14T16:12:59.521Z,18.30
2019-05-14T16:17:11.912Z,18.40
2019-05-14T16:21:19.744Z,18.40
2019-05-14T16:25:28.699Z,18.40
2019-05-14T16:29:45.198Z,18.90
2019-05-14T16:33:49.644Z,18.50
2019-05-14T16:37:59.150Z,18.30
2019-05-14T16:42:08.160Z,18.10
2019-05-14T16:46:18.196Z,17.60
2019-05-14T16:50:28.700Z,17.60
2019-05-14T16:54:39.503Z,17.50
2019-05-14T16:58:48.090Z,17.30
2019-05-14T17:02:58.969Z,17.90
2019-05-14T17:07:09.523Z,18.60
2019-05-14T17:11:18.489Z,18.80
2019-05-14T17:15:28.838Z,18.90
2019-05-14T17:19:38.643Z,18.60
2019-05-14T17:23:49.010Z,19.80
2019-05-14T17:27:59.356Z,21.20
2019-05-14T17:32:08.429Z,21.70
2019-05-14T17:36:18.761Z,21.60
2019-05-14T17:40:27.874Z,22.00
2019-05-14T17:44:38.880Z,21.60
2019-05-14T17:48:48.611Z,21.80
2019-05-14T17:53:00.157Z,21.80
2019-05-14T17:57:08.456Z,21.50
2019-05-14T18:01:18.303Z,21.40
2019-05-14T18:05:29.131Z,21.40
2019-05-14T18:09:38.019Z,21.60
2019-05-14T18:13:48.470Z,22.60
2019-05-14T18:17:58.881Z,22.90
2019-05-14T18:22:08.865Z,23.10
2019-05-14T18:26:18.914Z,22.40
2019-05-14T18:30:28.955Z,22.40
2019-05-14T18:34:39.208Z,21.40
2019-05-14T18:38:49.346Z,19.40
2019-05-14T18:42:59.328Z,17.50
2019-05-14T18:47:08.850Z,16.30
2019-05-14T18:51:19.609Z,15.60
2019-05-14T18:55:29.342Z,15.00
2019-05-14T18:59:39.125Z,14.40
2019-05-14T19:03:49.372Z,14.10
2019-05-14T19:07:59.312Z,13.70
2019-05-14T19:12:08.574Z,13.40
2019-05-14T19:16:17.417Z,13.20
2019-05-14T19:20:28.188Z,12.90
2019-05-14T19:24:38.268Z,12.70
2019-05-14T19:28:48.551Z,12.40
2019-05-14T19:32:57.575Z,12.20
2019-05-14T19:37:08.125Z,12.00
2019-05-14T19:41:18.858Z,11.80
2019-05-14T19:45:28.168Z,11.60
2019-05-14T19:49:38.266Z,11.40
2019-05-14T19:53:48.581Z,11.20
2019-05-14T19:57:58.315Z,11.00
2019-05-14T20:02:09.536Z,10.80
2019-05-14T20:06:18.678Z,10.70
2019-05-14T20:10:29.210Z,10.50
2019-05-14T20:14:38.396Z,10.30
2019-05-14T20:18:48.799Z,10.20
2019-05-14T20:22:58.956Z,10.10
2019-05-14T20:27:11.927Z,10.00
2019-05-14T20:31:18.527Z,9.90
2019-05-14T20:35:34.379Z,9.70
2019-05-14T20:39:39.045Z,9.60
2019-05-14T20:43:48.156Z,9.50
2019-05-14T20:47:58.585Z,9.40
2019-05-14T20:52:08.622Z,9.30
2019-05-14T20:56:19.015Z,9.20
2019-05-14T21:00:29.230Z,9.00
2019-05-14T21:04:38.377Z,8.90
2019-05-14T21:08:48.895Z,8.80
2019-05-14T21:12:58.182Z,8.70
2019-05-14T21:17:08.491Z,8.50
2019-05-14T21:21:18.507Z,8.40
2019-05-14T21:25:29.644Z,8.20
2019-05-14T21:29:38.377Z,8.10
2019-05-14T21:33:48.997Z,7.90
2019-05-14T21:37:59.392Z,7.80
2019-05-14T21:42:10.976Z,7.70
2019-05-14T21:46:19.368Z,7.60
2019-05-14T21:50:28.869Z,7.50
2019-05-14T21:54:39.477Z,7.40
2019-05-14T21:58:48.516Z,7.30
2019-05-14T22:02:58.472Z,7.20
2019-05-14T22:07:09.092Z,7.10
2019-05-14T22:11:18.826Z,7.00
2019-05-14T22:15:29.260Z,6.90
2019-05-14T22:19:38.550Z,6.80
2019-05-14T22:23:48.166Z,6.70
2019-05-14T22:28:11.445Z,6.60
2019-05-14T22:32:08.324Z,6.50
2019-05-14T22:36:20.945Z,6.40
2019-05-14T22:40:29.139Z,6.30
2019-05-14T22:44:38.334Z,6.20
2019-05-14T22:48:51.341Z,6.10
2019-05-14T22:52:58.471Z,6.10
2019-05-14T22:57:07.536Z,6.00
2019-05-14T23:01:18.373Z,5.90
2019-05-14T23:05:29.007Z,5.90
2019-05-14T23:09:38.715Z,5.80
2019-05-14T23:13:48.810Z,5.70
2019-05-14T23:17:58.850Z,5.60
2019-05-14T23:22:07.817Z,5.50
2019-05-14T23:26:19.074Z,5.40
2019-05-14T23:30:34.283Z,5.30
2019-05-14T23:34:43.049Z,5.20
2019-05-14T23:38:52.086Z,5.20
2019-05-14T23:43:01.106Z,5.10
2019-05-14T23:47:09.992Z,5.00
2019-05-14T23:51:19.075Z,5.00
2019-05-14T23:55:28.971Z,4.90
2019-05-14T23:59:39.616Z,4.90
